createdAt,value
2023-05-18T00:01:10.255Z,7.73
2023-05-18T00:03:39.571Z,7.70
2023-05-18T00:06:10.480Z,7.68
2023-05-18T00:08:39.768Z,7.64
2023-05-18T00:11:09.404Z,7.60
2023-05-18T00:13:38.540Z,7.58
2023-05-18T00:16:10.877Z,7.56
2023-05-18T00:18:44.783Z,7.53
2023-05-18T00:21:15.696Z,7.51
2023-05-18T00:23:50.664Z,7.47
2023-05-18T00:26:20.471Z,7.47
2023-05-18T00:28:56.265Z,7.47
2023-05-18T00:31:28.523Z,7.47
2023-05-18T00:34:00.533Z,7.45
2023-05-18T00:36:32.972Z,7.44
2023-05-18T00:39:05.402Z,7.43
2023-05-18T00:41:35.014Z,7.42
2023-05-18T00:44:04.468Z,7.39
2023-05-18T00:46:33.399Z,7.39
2023-05-18T00:49:04.317Z,7.36
2023-05-18T00:51:35.980Z,7.36
2023-05-18T00:54:12.367Z,7.34
2023-05-18T00:56:46.173Z,7.32
2023-05-18T00:59:18.152Z,7.31
2023-05-18T01:01:48.186Z,7.31
2023-05-18T01:04:24.089Z,7.31
2023-05-18T01:07:06.222Z,7.31
2023-05-18T01:09:35.577Z,7.29
2023-05-18T01:12:12.909Z,7.29
2023-05-18T01:14:49.983Z,7.28
2023-05-18T01:17:34.796Z,7.27
2023-05-18T01:20:33.605Z,7.27
2023-05-18T01:23:29.396Z,7.27
2023-05-18T01:26:16.123Z,7.25
2023-05-18T01:28:52.563Z,7.22
2023-05-18T01:31:28.398Z,7.20
2023-05-18T01:33:58.488Z,7.19
2023-05-18T01:36:31.781Z,7.18
2023-05-18T01:39:03.948Z,7.17
2023-05-18T01:41:38.707Z,7.15
2023-05-18T01:44:19.263Z,7.11
2023-05-18T01:47:06.652Z,7.09
2023-05-18T01:49:43.888Z,7.07
2023-05-18T01:52:18.884Z,7.05
2023-05-18T01:54:54.201Z,7.02
2023-05-18T01:57:29.739Z,7.01
2023-05-18T02:00:00.671Z,7.00
2023-05-18T02:02:38.439Z,6.98
2023-05-18T02:05:11.781Z,6.93
2023-05-18T02:07:43.544Z,6.93
2023-05-18T02:10:14.934Z,6.87
2023-05-18T02:12:48.540Z,6.83
2023-05-18T02:15:19.335Z,6.77
2023-05-18T02:17:50.891Z,6.72
2023-05-18T02:20:20.473Z,6.70
2023-05-18T02:22:49.538Z,6.68
2023-05-18T02:25:19.870Z,6.65
2023-05-18T02:27:53.549Z,6.62
2023-05-18T02:30:24.759Z,6.58
2023-05-18T02:32:53.574Z,6.54
2023-05-18T02:35:23.005Z,6.47
2023-05-18T02:37:53.563Z,6.42
2023-05-18T02:40:23.119Z,6.36
2023-05-18T02:42:52.130Z,6.32
2023-05-18T02:45:21.627Z,6.27
2023-05-18T02:47:50.759Z,6.25
2023-05-18T02:50:20.144Z,6.23
2023-05-18T02:52:50.803Z,6.21
2023-05-18T02:55:19.881Z,6.18
2023-05-18T02:58:07.396Z,6.15
2023-05-18T03:01:03.086Z,6.15
2023-05-18T03:03:37.000Z,6.12
2023-05-18T03:06:08.551Z,6.12
2023-05-18T03:08:40.844Z,6.11
2023-05-18T03:11:12.971Z,6.11
2023-05-18T03:13:43.137Z,6.10
2023-05-18T03:16:15.065Z,6.09
2023-05-18T03:18:44.440Z,6.10
2023-05-18T03:21:16.997Z,6.11
2023-05-18T03:23:46.375Z,6.12
2023-05-18T03:26:16.277Z,6.15
2023-05-18T03:28:45.470Z,6.16
2023-05-18T03:31:14.587Z,6.18
2023-05-18T03:33:43.798Z,6.20
2023-05-18T03:36:22.323Z,6.23
2023-05-18T03:38:55.732Z,6.26
2023-05-18T03:41:29.544Z,6.28
2023-05-18T03:44:00.514Z,6.31
2023-05-18T03:46:31.548Z,6.33
2023-05-18T03:49:02.761Z,6.34
2023-05-18T03:51:38.300Z,6.36
2023-05-18T03:54:10.664Z,6.37
2023-05-18T03:56:44.534Z,6.41
2023-05-18T03:59:13.733Z,6.41
2023-05-18T04:01:43.863Z,6.43
2023-05-18T04:04:17.870Z,6.45
2023-05-18T04:06:46.642Z,6.48
2023-05-18T04:09:17.989Z,6.50
2023-05-18T04:11:46.960Z,6.52
2023-05-18T04:14:16.716Z,6.54
2023-05-18T04:16:46.273Z,6.57
2023-05-18T04:19:16.983Z,6.59
2023-05-18T04:21:46.846Z,6.64
2023-05-18T04:24:16.053Z,6.68
2023-05-18T04:26:46.091Z,6.74
2023-05-18T04:29:18.313Z,6.79
2023-05-18T04:31:49.667Z,6.82
2023-05-18T04:34:18.761Z,6.88
2023-05-18T04:36:48.424Z,6.93
2023-05-18T04:39:18.880Z,6.96
2023-05-18T04:41:57.655Z,7.02
2023-05-18T04:44:30.794Z,7.05
2023-05-18T04:47:03.975Z,7.09
2023-05-18T04:49:38.099Z,7.16
2023-05-18T04:52:11.845Z,7.22
2023-05-18T04:54:41.071Z,7.29
2023-05-18T04:57:11.534Z,7.33
2023-05-18T04:59:44.593Z,7.37
2023-05-18T05:02:14.706Z,7.40
2023-05-18T05:04:44.422Z,7.44
2023-05-18T05:07:13.885Z,7.49
2023-05-18T05:09:46.717Z,7.54
2023-05-18T05:12:15.604Z,7.60
2023-05-18T05:14:45.846Z,7.66
2023-05-18T05:17:28.589Z,7.73
2023-05-18T05:19:57.910Z,7.78
2023-05-18T05:22:27.030Z,7.82
2023-05-18T05:24:59.997Z,7.88
2023-05-18T05:27:40.147Z,7.94
2023-05-18T05:30:18.488Z,7.99
2023-05-18T05:32:50.272Z,8.06
2023-05-18T05:35:34.883Z,8.16
2023-05-18T05:38:05.350Z,8.25
2023-05-18T05:40:37.845Z,8.29
2023-05-18T05:43:07.608Z,8.32
2023-05-18T05:45:43.214Z,8.37
2023-05-18T05:48:15.522Z,8.41
2023-05-18T05:50:45.652Z,8.48
2023-05-18T05:53:17.401Z,8.58
2023-05-18T05:55:47.131Z,8.67
2023-05-18T05:58:20.787Z,8.77
2023-05-18T06:00:53.547Z,8.91
2023-05-18T06:03:23.092Z,9.12
2023-05-18T06:05:52.454Z,9.33
2023-05-18T06:08:24.695Z,9.55
2023-05-18T06:10:55.330Z,9.67
2023-05-18T06:13:24.281Z,9.78
2023-05-18T06:15:59.928Z,9.83
2023-05-18T06:18:31.904Z,9.88
2023-05-18T06:21:05.372Z,9.89
2023-05-18T06:23:39.459Z,9.91
2023-05-18T06:26:28.782Z,9.97
2023-05-18T06:29:27.466Z,9.96
2023-05-18T06:32:10.087Z,9.97
2023-05-18T06:34:45.406Z,10.07
2023-05-18T06:37:14.995Z,10.15
2023-05-18T06:39:47.292Z,10.27
2023-05-18T06:42:16.537Z,10.36
2023-05-18T06:44:56.059Z,10.45
2023-05-18T06:47:48.134Z,10.50
2023-05-18T06:50:17.601Z,10.54
2023-05-18T06:52:51.085Z,10.63
2023-05-18T06:55:20.541Z,10.66
2023-05-18T06:57:52.917Z,10.68
2023-05-18T07:00:26.838Z,10.77
2023-05-18T07:02:57.590Z,10.85
2023-05-18T07:05:36.891Z,10.87
2023-05-18T07:08:07.680Z,10.97
2023-05-18T07:10:36.995Z,10.96
2023-05-18T07:13:08.551Z,10.96
2023-05-18T07:15:39.191Z,11.06
2023-05-18T07:18:08.152Z,11.17
2023-05-18T07:20:37.691Z,11.21
2023-05-18T07:23:08.489Z,11.30
2023-05-18T07:25:38.011Z,11.43
2023-05-18T07:28:09.049Z,11.50
2023-05-18T07:30:38.402Z,11.48
2023-05-18T07:33:19.297Z,11.51
2023-05-18T07:35:48.221Z,11.58
2023-05-18T07:38:19.573Z,11.68
2023-05-18T07:40:48.685Z,11.79
2023-05-18T07:43:17.576Z,11.89
2023-05-18T07:45:46.656Z,12.00
2023-05-18T07:48:15.811Z,12.11
2023-05-18T07:50:44.851Z,12.18
2023-05-18T07:53:16.275Z,12.30
2023-05-18T07:55:45.759Z,12.39
2023-05-18T07:58:16.657Z,12.45
2023-05-18T08:00:45.834Z,12.51
2023-05-18T08:03:15.782Z,12.65
2023-05-18T08:05:45.934Z,12.74
2023-05-18T08:08:17.695Z,12.87
2023-05-18T08:10:47.236Z,13.01
2023-05-18T08:13:17.354Z,13.12
2023-05-18T08:15:51.055Z,13.21
2023-05-18T08:18:28.454Z,13.31
2023-05-18T08:20:57.761Z,13.40
2023-05-18T08:23:26.656Z,13.33
2023-05-18T08:25:59.654Z,13.23
2023-05-18T08:28:28.579Z,13.28
2023-05-18T08:30:57.873Z,13.36
2023-05-18T08:33:26.820Z,13.44
2023-05-18T08:35:56.245Z,13.47
2023-05-18T08:38:25.072Z,13.54
2023-05-18T08:41:06.641Z,13.51
2023-05-18T08:43:41.833Z,13.65
2023-05-18T08:46:20.159Z,13.81
2023-05-18T08:48:51.953Z,13.88
2023-05-18T08:51:22.033Z,13.87
2023-05-18T08:53:54.028Z,13.93
2023-05-18T08:56:25.935Z,14.01
2023-05-18T08:59:00.274Z,14.07
2023-05-18T09:01:30.850Z,14.04
2023-05-18T09:04:00.219Z,14.11
2023-05-18T09:06:29.623Z,14.25
2023-05-18T09:08:58.824Z,14.34
2023-05-18T09:11:28.481Z,14.40
2023-05-18T09:13:58.596Z,14.46
2023-05-18T09:16:28.804Z,14.52
2023-05-18T09:18:58.352Z,14.62
2023-05-18T09:21:32.230Z,14.72
2023-05-18T09:24:00.584Z,14.77
2023-05-18T09:26:30.453Z,14.77
2023-05-18T09:28:59.686Z,14.86
2023-05-18T09:31:31.723Z,14.98
2023-05-18T09:34:01.340Z,15.07
2023-05-18T09:36:33.958Z,15.14
2023-05-18T09:39:09.732Z,15.26
2023-05-18T09:41:40.850Z,15.48
2023-05-18T09:44:13.102Z,15.62
2023-05-18T09:46:44.012Z,15.77
2023-05-18T09:49:21.249Z,15.80
2023-05-18T09:51:50.614Z,15.63
2023-05-18T09:54:24.229Z,15.44
2023-05-18T09:57:09.033Z,15.36
2023-05-18T09:59:40.900Z,15.39
2023-05-18T10:02:15.722Z,15.43
2023-05-18T10:04:45.236Z,15.43
2023-05-18T10:07:18.230Z,15.40
2023-05-18T10:09:47.259Z,15.38
2023-05-18T10:12:18.114Z,15.46
2023-05-18T10:14:49.204Z,15.44
2023-05-18T10:17:18.958Z,15.52
2023-05-18T10:19:51.837Z,15.53
2023-05-18T10:22:23.136Z,15.56
2023-05-18T10:24:52.757Z,15.60
2023-05-18T10:27:27.765Z,15.67
2023-05-18T10:29:59.321Z,15.53
2023-05-18T10:32:30.966Z,15.39
2023-05-18T10:35:01.581Z,15.32
2023-05-18T10:37:33.784Z,15.24
2023-05-18T10:40:04.139Z,15.23
2023-05-18T10:42:33.627Z,15.32
2023-05-18T10:45:06.347Z,15.31
2023-05-18T10:47:39.408Z,15.29
2023-05-18T10:50:11.651Z,15.40
2023-05-18T10:52:42.966Z,15.50
2023-05-18T10:55:17.828Z,15.61
2023-05-18T10:57:56.745Z,15.75
2023-05-18T11:00:31.068Z,15.91
2023-05-18T11:03:07.951Z,16.03
2023-05-18T11:05:39.324Z,16.11
2023-05-18T11:08:08.715Z,16.17
2023-05-18T11:10:41.909Z,16.28
2023-05-18T11:13:14.798Z,16.32
2023-05-18T11:16:06.764Z,16.38
2023-05-18T11:18:38.362Z,16.47
2023-05-18T11:21:34.458Z,16.59
2023-05-18T11:24:19.846Z,16.53
2023-05-18T11:26:50.685Z,16.44
2023-05-18T11:29:22.290Z,16.43
2023-05-18T11:31:53.505Z,16.41
2023-05-18T11:34:52.739Z,16.41
2023-05-18T11:37:48.837Z,16.60
2023-05-18T11:40:47.131Z,16.67
2023-05-18T11:43:27.354Z,16.71
2023-05-18T11:46:00.866Z,16.73
2023-05-18T11:48:31.784Z,16.63
2023-05-18T11:51:09.032Z,16.56
2023-05-18T11:53:38.547Z,16.44
2023-05-18T11:56:18.026Z,16.46
2023-05-18T11:59:07.402Z,16.45
2023-05-18T12:01:41.521Z,16.35
2023-05-18T12:04:11.619Z,16.41
2023-05-18T12:06:44.546Z,16.42
2023-05-18T12:09:34.892Z,16.42
2023-05-18T12:12:13.540Z,16.39
2023-05-18T12:14:53.485Z,16.28
2023-05-18T12:17:23.905Z,16.17
2023-05-18T12:19:52.908Z,16.20
2023-05-18T12:22:22.121Z,16.26
2023-05-18T12:24:52.878Z,16.35
2023-05-18T12:27:22.806Z,16.42
2023-05-18T12:29:52.953Z,16.48
2023-05-18T12:32:25.726Z,16.43
2023-05-18T12:34:54.866Z,16.34
2023-05-18T12:37:34.121Z,16.20
2023-05-18T12:40:17.832Z,16.28
2023-05-18T12:42:56.545Z,16.34
2023-05-18T12:45:33.344Z,16.25
2023-05-18T12:48:15.647Z,16.19
2023-05-18T12:50:50.244Z,16.11
2023-05-18T12:53:19.752Z,16.00
2023-05-18T12:55:57.995Z,16.00
2023-05-18T12:58:27.377Z,15.99
2023-05-18T13:00:56.402Z,15.96
2023-05-18T13:03:26.238Z,15.93
2023-05-18T13:06:05.552Z,15.87
2023-05-18T13:08:35.772Z,15.91
2023-05-18T13:11:13.513Z,15.96
2023-05-18T13:14:04.502Z,15.99
2023-05-18T13:16:39.116Z,16.02
2023-05-18T13:19:09.632Z,16.06
2023-05-18T13:21:39.150Z,16.01
2023-05-18T13:24:08.669Z,15.96
2023-05-18T13:26:37.774Z,15.97
2023-05-18T13:29:08.062Z,15.98
2023-05-18T13:31:37.427Z,15.93
2023-05-18T13:34:06.342Z,15.75
2023-05-18T13:36:36.586Z,15.73
2023-05-18T13:39:06.763Z,15.66
2023-05-18T13:41:36.276Z,15.60
2023-05-18T13:44:05.613Z,15.52
2023-05-18T13:46:37.025Z,15.48
2023-05-18T13:49:05.946Z,15.37
2023-05-18T13:51:35.116Z,15.30
2023-05-18T13:54:04.408Z,15.25
2023-05-18T13:56:33.304Z,15.21
2023-05-18T13:59:03.167Z,15.18
2023-05-18T14:01:32.481Z,15.12
2023-05-18T14:04:01.832Z,15.05
2023-05-18T14:06:31.330Z,14.92
2023-05-18T14:09:01.702Z,14.87
2023-05-18T14:11:34.089Z,14.83
2023-05-18T14:14:03.267Z,14.83
2023-05-18T14:16:32.443Z,14.79
2023-05-18T14:19:01.666Z,14.75
2023-05-18T14:21:31.238Z,14.71
2023-05-18T14:24:03.513Z,14.63
2023-05-18T14:26:33.692Z,14.60
2023-05-18T14:29:03.740Z,14.58
2023-05-18T14:31:32.903Z,14.58
2023-05-18T14:34:03.575Z,14.52
2023-05-18T14:36:32.737Z,14.46
2023-05-18T14:39:01.918Z,14.43
2023-05-18T14:41:31.044Z,14.34
2023-05-18T14:44:03.171Z,14.29
2023-05-18T14:46:32.329Z,14.28
2023-05-18T14:49:01.524Z,14.25
2023-05-18T14:51:30.784Z,14.19
2023-05-18T14:54:00.073Z,14.14
2023-05-18T14:56:30.230Z,14.12
2023-05-18T14:58:59.223Z,14.08
2023-05-18T15:01:28.550Z,14.01
2023-05-18T15:03:57.719Z,13.96
2023-05-18T15:06:27.761Z,13.91
2023-05-18T15:08:57.320Z,13.85
2023-05-18T15:11:26.663Z,13.83
2023-05-18T15:13:55.774Z,13.79
2023-05-18T15:16:25.402Z,13.74
2023-05-18T15:18:54.587Z,13.71
2023-05-18T15:21:24.216Z,13.69
2023-05-18T15:23:53.201Z,13.66
2023-05-18T15:26:22.521Z,13.63
2023-05-18T15:28:53.777Z,13.61
2023-05-18T15:31:23.176Z,13.59
2023-05-18T15:33:52.572Z,13.57
2023-05-18T15:36:23.739Z,13.56
2023-05-18T15:38:53.399Z,13.54
2023-05-18T15:41:23.431Z,13.50
2023-05-18T15:43:54.435Z,13.47
2023-05-18T15:46:23.981Z,13.43
2023-05-18T15:48:55.961Z,13.44
2023-05-18T15:51:25.632Z,13.42
2023-05-18T15:53:54.633Z,13.42
2023-05-18T15:56:23.809Z,13.43
2023-05-18T15:58:55.492Z,13.42
2023-05-18T16:01:25.847Z,13.43
2023-05-18T16:03:55.968Z,13.41
2023-05-18T16:06:25.376Z,13.38
2023-05-18T16:08:55.740Z,13.34
2023-05-18T16:11:25.567Z,13.30
2023-05-18T16:13:56.796Z,13.28
2023-05-18T16:16:26.476Z,13.27
2023-05-18T16:18:55.466Z,13.25
2023-05-18T16:21:24.429Z,13.24
2023-05-18T16:23:53.312Z,13.22
2023-05-18T16:26:22.415Z,13.21
2023-05-18T16:28:51.790Z,13.19
2023-05-18T16:31:21.368Z,13.18
2023-05-18T16:33:50.091Z,13.16
2023-05-18T16:36:19.094Z,13.13
2023-05-18T16:38:47.900Z,13.14
2023-05-18T16:41:17.192Z,13.10
2023-05-18T16:43:46.060Z,13.09
2023-05-18T16:46:19.438Z,13.07
2023-05-18T16:48:51.389Z,13.03
2023-05-18T16:51:20.782Z,13.01
2023-05-18T16:53:51.705Z,12.99
2023-05-18T16:56:21.743Z,12.94
2023-05-18T16:58:55.718Z,12.93
2023-05-18T17:01:28.537Z,12.89
2023-05-18T17:03:58.690Z,12.86
2023-05-18T17:06:28.260Z,12.83
2023-05-18T17:08:57.434Z,12.79
2023-05-18T17:11:28.357Z,12.77
2023-05-18T17:13:59.505Z,12.75
2023-05-18T17:16:29.530Z,12.75
2023-05-18T17:18:58.593Z,12.74
2023-05-18T17:21:30.546Z,12.74
2023-05-18T17:23:59.788Z,12.71
2023-05-18T17:26:32.491Z,12.70
2023-05-18T17:29:01.312Z,12.69
2023-05-18T17:31:31.065Z,12.66
2023-05-18T17:34:00.159Z,12.64
2023-05-18T17:36:29.367Z,12.61
2023-05-18T17:38:58.420Z,12.58
2023-05-18T17:41:27.877Z,12.55
2023-05-18T17:44:01.695Z,12.51
2023-05-18T17:46:31.391Z,12.49
2023-05-18T17:49:03.474Z,12.45
2023-05-18T17:51:33.104Z,12.42
2023-05-18T17:54:02.468Z,12.39
2023-05-18T17:56:35.203Z,12.38
2023-05-18T17:59:05.012Z,12.38
2023-05-18T18:01:38.052Z,12.35
2023-05-18T18:04:07.123Z,12.33
2023-05-18T18:06:39.606Z,12.31
2023-05-18T18:09:08.666Z,12.28
2023-05-18T18:11:41.551Z,12.25
2023-05-18T18:14:15.813Z,12.25
2023-05-18T18:16:45.710Z,12.23
2023-05-18T18:19:18.683Z,12.19
2023-05-18T18:21:50.959Z,12.19
2023-05-18T18:24:21.803Z,12.17
2023-05-18T18:26:52.645Z,12.17
2023-05-18T18:29:21.956Z,12.14
2023-05-18T18:31:52.056Z,12.11
2023-05-18T18:34:23.651Z,12.09
2023-05-18T18:37:00.848Z,12.07
2023-05-18T18:39:34.510Z,12.04
2023-05-18T18:42:06.954Z,12.00
2023-05-18T18:44:37.728Z,11.97
2023-05-18T18:47:07.745Z,11.95
2023-05-18T18:49:56.109Z,11.92
2023-05-18T18:52:26.181Z,11.89
2023-05-18T18:54:55.799Z,11.86
2023-05-18T18:57:27.653Z,11.84
2023-05-18T18:59:58.578Z,11.80
2023-05-18T19:02:29.018Z,11.77
2023-05-18T19:04:59.114Z,11.74
2023-05-18T19:07:29.063Z,11.73
2023-05-18T19:09:57.951Z,11.67
2023-05-18T19:12:27.082Z,11.65
2023-05-18T19:14:56.044Z,11.62
2023-05-18T19:17:26.324Z,11.62
2023-05-18T19:19:55.351Z,11.57
2023-05-18T19:22:24.316Z,11.54
2023-05-18T19:24:53.211Z,11.51
2023-05-18T19:27:23.402Z,11.51
2023-05-18T19:29:52.698Z,11.51
2023-05-18T19:32:22.745Z,11.49
2023-05-18T19:34:51.822Z,11.50
2023-05-18T19:37:21.299Z,11.49
2023-05-18T19:39:50.491Z,11.49
2023-05-18T19:42:20.111Z,11.48
2023-05-18T19:44:49.132Z,11.48
2023-05-18T19:47:18.276Z,11.46
2023-05-18T19:49:47.422Z,11.46
2023-05-18T19:52:19.481Z,11.45
2023-05-18T19:54:50.533Z,11.45
2023-05-18T19:57:20.989Z,11.45
2023-05-18T19:59:50.274Z,11.47
2023-05-18T20:02:19.356Z,11.45
2023-05-18T20:04:48.602Z,11.47
2023-05-18T20:07:17.860Z,11.48
2023-05-18T20:09:47.061Z,11.49
2023-05-18T20:12:16.263Z,11.50
2023-05-18T20:14:46.635Z,11.52
2023-05-18T20:17:21.227Z,11.53
2023-05-18T20:19:50.554Z,11.54
2023-05-18T20:22:20.412Z,11.55
2023-05-18T20:24:50.683Z,11.54
2023-05-18T20:27:19.784Z,11.54
2023-05-18T20:29:48.610Z,11.53
2023-05-18T20:32:18.094Z,11.52
2023-05-18T20:34:47.275Z,11.51
2023-05-18T20:37:30.858Z,11.51
2023-05-18T20:40:06.806Z,11.49
2023-05-18T20:42:40.902Z,11.50
2023-05-18T20:45:11.756Z,11.50
2023-05-18T20:47:46.831Z,11.48
2023-05-18T20:50:17.327Z,11.48
2023-05-18T20:52:46.920Z,11.47
2023-05-18T20:55:17.949Z,11.48
2023-05-18T20:57:50.361Z,11.48
2023-05-18T21:00:22.906Z,11.48
2023-05-18T21:02:53.984Z,11.48
2023-05-18T21:05:23.202Z,11.49
2023-05-18T21:07:52.974Z,11.49
2023-05-18T21:10:25.970Z,11.50
2023-05-18T21:12:55.547Z,11.50
2023-05-18T21:15:26.848Z,11.49
2023-05-18T21:18:03.245Z,11.48
2023-05-18T21:20:33.352Z,11.47
2023-05-18T21:23:03.913Z,11.46
2023-05-18T21:25:33.918Z,11.44
2023-05-18T21:28:06.524Z,11.41
2023-05-18T21:30:35.312Z,11.40
2023-05-18T21:33:05.534Z,11.37
2023-05-18T21:35:34.863Z,11.34
2023-05-18T21:38:07.066Z,11.31
2023-05-18T21:40:36.067Z,11.27
2023-05-18T21:43:07.148Z,11.26
2023-05-18T21:45:36.013Z,11.24
2023-05-18T21:48:09.760Z,11.22
2023-05-18T21:50:38.746Z,11.21
2023-05-18T21:53:08.211Z,11.21
2023-05-18T21:55:37.237Z,11.19
2023-05-18T21:58:06.951Z,11.18
2023-05-18T22:00:37.675Z,11.17
2023-05-18T22:03:09.622Z,11.17
2023-05-18T22:05:40.895Z,11.17
2023-05-18T22:08:11.186Z,11.17
2023-05-18T22:10:43.223Z,11.16
2023-05-18T22:13:13.479Z,11.16
2023-05-18T22:15:42.299Z,11.14
2023-05-18T22:18:11.478Z,11.15
2023-05-18T22:20:41.313Z,11.15
2023-05-18T22:23:10.955Z,11.14
2023-05-18T22:25:42.165Z,11.13
2023-05-18T22:28:12.361Z,11.12
2023-05-18T22:30:44.251Z,11.12
2023-05-18T22:33:14.049Z,11.11
2023-05-18T22:35:43.040Z,11.10
2023-05-18T22:38:14.021Z,11.08
2023-05-18T22:40:43.779Z,11.07
2023-05-18T22:43:14.729Z,11.05
2023-05-18T22:45:43.582Z,11.03
2023-05-18T22:48:15.767Z,11.02
2023-05-18T22:50:47.769Z,11.01
2023-05-18T22:53:16.745Z,10.99
2023-05-18T22:55:48.522Z,10.99
2023-05-18T22:58:17.647Z,10.98
2023-05-18T23:00:46.628Z,10.96
2023-05-18T23:03:19.097Z,10.93
2023-05-18T23:05:48.320Z,10.91
2023-05-18T23:08:17.227Z,10.91
2023-05-18T23:10:46.138Z,10.88
2023-05-18T23:13:16.889Z,10.88
2023-05-18T23:15:47.203Z,10.87
2023-05-18T23:18:18.497Z,10.86
2023-05-18T23:20:50.107Z,10.84
2023-05-18T23:23:27.459Z,10.81
2023-05-18T23:25:59.605Z,10.78
2023-05-18T23:28:29.413Z,10.77
2023-05-18T23:31:03.021Z,10.77
2023-05-18T23:33:34.587Z,10.75
2023-05-18T23:36:08.056Z,10.74
2023-05-18T23:38:40.350Z,10.71
2023-05-18T23:41:10.260Z,10.68
2023-05-18T23:43:43.410Z,10.66
2023-05-18T23:46:16.481Z,10.66
2023-05-18T23:48:46.617Z,10.62
2023-05-18T23:51:18.717Z,10.59
2023-05-18T23:53:58.965Z,10.57
2023-05-18T23:56:29.051Z,10.55
2023-05-18T23:59:00.937Z,10.54
